sensor_id;sensor_type;location;lat;lon;timestamp;pressure;altitude;pressure_sealevel;temperature;humidity
70900;BME280;67902;52.154;5.430;2023-04-02T00:07:52;101350.78;;;6.14;94.35
70900;BME280;67902;52.154;5.430;2023-04-02T00:10:38;101360.69;;;6.14;94.01
70900;BME280;67902;52.154;5.430;2023-04-02T00:15:40;101365.03;;;6.15;93.90
70900;BME280;67902;52.154;5.430;2023-04-02T00:18:16;101370.63;;;6.13;94.18
70900;BME280;67902;52.154;5.430;2023-04-02T00:20:48;101375.56;;;6.10;94.15
70900;BME280;67902;52.154;5.430;2023-04-02T00:23:16;101378.47;;;6.08;93.92
70900;BME280;67902;52.154;5.430;2023-04-02T00:25:43;101380.53;;;6.06;93.65
70900;BME280;67902;52.154;5.430;2023-04-02T00:28:13;101379.72;;;6.06;93.87
70900;BME280;67902;52.154;5.430;2023-04-02T00:30:46;101388.78;;;6.05;93.79
70900;BME280;67902;52.154;5.430;2023-04-02T00:33:15;101396.22;;;6.03;93.29
70900;BME280;67902;52.154;5.430;2023-04-02T00:35:43;101393.72;;;6.01;93.72
70900;BME280;67902;52.154;5.430;2023-04-02T00:38:20;101394.97;;;5.99;93.90
70900;BME280;67902;52.154;5.430;2023-04-02T00:40:48;101407.56;;;5.98;93.52
70900;BME280;67902;52.154;5.430;2023-04-02T00:43:17;101406.75;;;5.98;93.79
70900;BME280;67902;52.154;5.430;2023-04-02T00:45:46;101413.34;;;5.95;93.45
70900;BME280;67902;52.154;5.430;2023-04-02T00:48:35;101417.69;;;5.96;93.43
70900;BME280;67902;52.154;5.430;2023-04-02T00:51:36;101419.38;;;5.97;93.36
70900;BME280;67902;52.154;5.430;2023-04-02T00:54:05;101433.00;;;5.96;93.19
70900;BME280;67902;52.154;5.430;2023-04-02T00:56:41;101429.69;;;5.94;93.40
70900;BME280;67902;52.154;5.430;2023-04-02T00:59:35;101430.69;;;5.93;93.15
70900;BME280;67902;52.154;5.430;2023-04-02T01:05:00;101450.13;;;5.88;93.48
70900;BME280;67902;52.154;5.430;2023-04-02T01:13:10;101461.06;;;5.87;93.26
70900;BME280;67902;52.154;5.430;2023-04-02T01:24:22;101485.63;;;5.83;93.23
70900;BME280;67902;52.154;5.430;2023-04-02T01:26:57;101484.56;;;5.84;92.86
70900;BME280;67902;52.154;5.430;2023-04-02T01:29:30;101492.00;;;5.82;92.48
70900;BME280;67902;52.154;5.430;2023-04-02T01:32:02;101493.69;;;5.83;92.95
70900;BME280;67902;52.154;5.430;2023-04-02T01:34:29;101497.38;;;5.82;92.55
70900;BME280;67902;52.154;5.430;2023-04-02T01:42:24;101508.53;;;5.79;92.41
70900;BME280;67902;52.154;5.430;2023-04-02T01:45:04;101512.00;;;5.73;92.14
70900;BME280;67902;52.154;5.430;2023-04-02T01:47:33;101520.06;;;5.73;92.24
70900;BME280;67902;52.154;5.430;2023-04-02T01:50:25;101516.75;;;5.71;91.94
70900;BME280;67902;52.154;5.430;2023-04-02T01:53:02;101525.19;;;5.68;91.96
70900;BME280;67902;52.154;5.430;2023-04-02T01:57:57;101530.94;;;5.65;92.08
70900;BME280;67902;52.154;5.430;2023-04-02T02:00:26;101542.91;;;5.63;91.89
70900;BME280;67902;52.154;5.430;2023-04-02T02:02:55;101547.84;;;5.59;92.30
70900;BME280;67902;52.154;5.430;2023-04-02T02:05:22;101551.56;;;5.58;92.52
70900;BME280;67902;52.154;5.430;2023-04-02T02:07:49;101558.34;;;5.54;92.30
70900;BME280;67902;52.154;5.430;2023-04-02T02:10:23;101569.47;;;5.51;92.40
70900;BME280;67902;52.154;5.430;2023-04-02T02:12:51;101572.28;;;5.43;92.01
70900;BME280;67902;52.154;5.430;2023-04-02T02:15:22;101579.72;;;5.41;92.21
70900;BME280;67902;52.154;5.430;2023-04-02T02:17:49;101577.41;;;5.38;92.45
70900;BME280;67902;52.154;5.430;2023-04-02T02:20:21;101585.22;;;5.33;92.12
70900;BME280;67902;52.154;5.430;2023-04-02T02:22:48;101586.16;;;5.25;92.18
70900;BME280;67902;52.154;5.430;2023-04-02T02:25:19;101583.03;;;5.22;92.05
70900;BME280;67902;52.154;5.430;2023-04-02T02:28:32;101590.25;;;5.21;91.94
70900;BME280;67902;52.154;5.430;2023-04-02T02:30:38;101599.25;;;5.14;91.94
70900;BME280;67902;52.154;5.430;2023-04-02T02:33:14;101594.66;;;5.08;91.97
70900;BME280;67902;52.154;5.430;2023-04-02T02:36:37;101608.84;;;5.02;92.28
70900;BME280;67902;52.154;5.430;2023-04-02T02:38:52;101608.16;;;5.00;92.35
70900;BME280;67902;52.154;5.430;2023-04-02T02:43:58;101614.31;;;4.94;92.16
70900;BME280;67902;52.154;5.430;2023-04-02T02:46:26;101619.69;;;4.94;91.96
70900;BME280;67902;52.154;5.430;2023-04-02T02:48:55;101633.09;;;4.94;92.35
70900;BME280;67902;52.154;5.430;2023-04-02T02:51:37;101638.63;;;4.92;92.15
70900;BME280;67902;52.154;5.430;2023-04-02T02:54:05;101650.22;;;4.93;92.58
70900;BME280;67902;52.154;5.430;2023-04-02T02:56:35;101648.38;;;4.93;92.69
70900;BME280;67902;52.154;5.430;2023-04-02T02:59:07;101654.56;;;4.94;92.64
70900;BME280;67902;52.154;5.430;2023-04-02T03:01:35;101667.53;;;4.90;92.09
70900;BME280;67902;52.154;5.430;2023-04-02T03:04:02;101662.53;;;4.87;91.58
70900;BME280;67902;52.154;5.430;2023-04-02T03:06:29;101670.56;;;4.87;92.31
70900;BME280;67902;52.154;5.430;2023-04-02T03:12:28;101679.00;;;4.84;91.85
70900;BME280;67902;52.154;5.430;2023-04-02T03:15:04;101686.84;;;4.86;91.73
70900;BME280;67902;52.154;5.430;2023-04-02T03:17:47;101693.25;;;4.85;91.43
70900;BME280;67902;52.154;5.430;2023-04-02T03:20:23;101692.59;;;4.83;91.75
70900;BME280;67902;52.154;5.430;2023-04-02T03:25:31;101707.41;;;4.79;91.13
70900;BME280;67902;52.154;5.430;2023-04-02T03:28:05;101715.81;;;4.76;91.55
70900;BME280;67902;52.154;5.430;2023-04-02T03:33:08;101730.91;;;4.77;91.07
70900;BME280;67902;52.154;5.430;2023-04-02T03:36:02;101738.66;;;4.72;91.18
70900;BME280;67902;52.154;5.430;2023-04-02T03:38:33;101744.00;;;4.72;91.12
70900;BME280;67902;52.154;5.430;2023-04-02T03:41:18;101739.03;;;4.68;91.04
70900;BME280;67902;52.154;5.430;2023-04-02T03:43:59;101747.91;;;4.69;91.13
70900;BME280;67902;52.154;5.430;2023-04-02T03:46:36;101754.94;;;4.70;90.78
70900;BME280;67902;52.154;5.430;2023-04-02T03:49:08;101759.00;;;4.66;90.80
70900;BME280;67902;52.154;5.430;2023-04-02T03:51:44;101760.88;;;4.65;90.53
70900;BME280;67902;52.154;5.430;2023-04-02T03:54:14;101771.59;;;4.65;90.67
70900;BME280;67902;52.154;5.430;2023-04-02T03:56:43;101768.25;;;4.63;90.60
70900;BME280;67902;52.154;5.430;2023-04-02T03:59:19;101772.78;;;4.63;90.24
70900;BME280;67902;52.154;5.430;2023-04-02T04:01:56;101781.66;;;4.63;90.43
70900;BME280;67902;52.154;5.430;2023-04-02T04:04:27;101784.34;;;4.63;90.18
70900;BME280;67902;52.154;5.430;2023-04-02T04:06:55;101789.41;;;4.58;90.52
70900;BME280;67902;52.154;5.430;2023-04-02T04:09:28;101793.50;;;4.54;90.04
70900;BME280;67902;52.154;5.430;2023-04-02T04:14:45;101807.41;;;4.50;89.91
70900;BME280;67902;52.154;5.430;2023-04-02T04:19:53;101822.88;;;4.48;89.63
70900;BME280;67902;52.154;5.430;2023-04-02T04:22:25;101824.72;;;4.47;89.93
70900;BME280;67902;52.154;5.430;2023-04-02T04:24:58;101830.72;;;4.49;90.23
70900;BME280;67902;52.154;5.430;2023-04-02T04:27:31;101839.97;;;4.47;90.09
70900;BME280;67902;52.154;5.430;2023-04-02T04:30:13;101844.69;;;4.45;89.91
70900;BME280;67902;52.154;5.430;2023-04-02T04:33:01;101855.28;;;4.38;89.86
70900;BME280;67902;52.154;5.430;2023-04-02T04:35:33;101855.28;;;4.38;90.11
70900;BME280;67902;52.154;5.430;2023-04-02T04:38:12;101860.00;;;4.36;89.80
70900;BME280;67902;52.154;5.430;2023-04-02T04:40:48;101870.78;;;4.28;89.74
70900;BME280;67902;52.154;5.430;2023-04-02T04:43:30;101874.81;;;4.24;89.80
70900;BME280;67902;52.154;5.430;2023-04-02T04:46:05;101883.19;;;4.21;89.71
70900;BME280;67902;52.154;5.430;2023-04-02T04:51:25;101891.47;;;4.12;89.21
70900;BME280;67902;52.154;5.430;2023-04-02T04:53:53;101895.06;;;4.04;88.72
70900;BME280;67902;52.154;5.430;2023-04-02T04:56:24;101900.41;;;3.96;88.90
70900;BME280;67902;52.154;5.430;2023-04-02T04:58:59;101911.88;;;3.90;89.08
70900;BME280;67902;52.154;5.430;2023-04-02T05:01:37;101918.56;;;3.86;88.76
70900;BME280;67902;52.154;5.430;2023-04-02T05:04:15;101923.28;;;3.84;89.22
70900;BME280;67902;52.154;5.430;2023-04-02T05:06:52;101924.94;;;3.77;89.46
70900;BME280;67902;52.154;5.430;2023-04-02T05:09:31;101932.69;;;3.72;88.65
70900;BME280;67902;52.154;5.430;2023-04-02T05:19:58;101966.25;;;3.19;88.03
70900;BME280;67902;52.154;5.430;2023-04-02T05:32:57;101999.69;;;2.83;87.84
70900;BME280;67902;52.154;5.430;2023-04-02T05:35:31;102004.84;;;2.76;87.81
70900;BME280;67902;52.154;5.430;2023-04-02T05:38:00;102007.31;;;2.70;88.40
70900;BME280;67902;52.154;5.430;2023-04-02T05:40:38;102012.34;;;2.65;88.54
70900;BME280;67902;52.154;5.430;2023-04-02T05:43:08;102026.22;;;2.60;87.89
70900;BME280;67902;52.154;5.430;2023-04-02T05:45:38;102023.19;;;2.55;87.68
70900;BME280;67902;52.154;5.430;2023-04-02T05:48:19;102026.50;;;2.49;87.66
70900;BME280;67902;52.154;5.430;2023-04-02T05:50:50;102024.69;;;2.50;87.18
70900;BME280;67902;52.154;5.430;2023-04-02T05:55:53;102043.75;;;2.55;87.42
70900;BME280;67902;52.154;5.430;2023-04-02T06:01:18;102060.47;;;2.65;86.63
70900;BME280;67902;52.154;5.430;2023-04-02T06:04:12;102062.13;;;2.58;87.28
70900;BME280;67902;52.154;5.430;2023-04-02T06:06:45;102064.81;;;2.58;86.98
70900;BME280;67902;52.154;5.430;2023-04-02T06:11:53;102083.03;;;2.70;87.07
70900;BME280;67902;52.154;5.430;2023-04-02T06:14:22;102092.91;;;2.78;86.70
70900;BME280;67902;52.154;5.430;2023-04-02T06:16:48;102098.28;;;2.78;86.37
70900;BME280;67902;52.154;5.430;2023-04-02T06:19:21;102120.38;;;2.88;87.12
70900;BME280;67902;52.154;5.430;2023-04-02T06:21:51;102119.41;;;2.97;86.34
70900;BME280;67902;52.154;5.430;2023-04-02T06:24:21;102131.44;;;3.01;86.15
70900;BME280;67902;52.154;5.430;2023-04-02T06:26:54;102131.97;;;3.05;86.21
70900;BME280;67902;52.154;5.430;2023-04-02T06:31:57;102142.50;;;3.06;86.22
70900;BME280;67902;52.154;5.430;2023-04-02T06:34:26;102146.53;;;3.10;86.37
70900;BME280;67902;52.154;5.430;2023-04-02T06:36:59;102149.88;;;3.12;85.71
70900;BME280;67902;52.154;5.430;2023-04-02T06:39:26;102144.69;;;3.11;85.90
70900;BME280;67902;52.154;5.430;2023-04-02T06:42:45;102153.41;;;3.13;86.07
70900;BME280;67902;52.154;5.430;2023-04-02T06:44:52;102160.56;;;3.12;86.30
70900;BME280;67902;52.154;5.430;2023-04-02T06:47:34;102158.63;;;3.22;85.36
70900;BME280;67902;52.154;5.430;2023-04-02T06:50:13;102164.44;;;3.26;85.48
70900;BME280;67902;52.154;5.430;2023-04-02T06:52:45;102168.00;;;3.42;85.96
70900;BME280;67902;52.154;5.430;2023-04-02T06:57:48;102180.59;;;3.50;84.68
70900;BME280;67902;52.154;5.430;2023-04-02T07:00:40;102184.44;;;3.47;85.26
70900;BME280;67902;52.154;5.430;2023-04-02T07:05:51;102204.50;;;3.43;85.21
70900;BME280;67902;52.154;5.430;2023-04-02T07:08:17;102203.50;;;3.44;85.34
70900;BME280;67902;52.154;5.430;2023-04-02T07:10:44;102219.88;;;3.41;85.44
70900;BME280;67902;52.154;5.430;2023-04-02T07:13:20;102221.59;;;3.50;85.70
70900;BME280;67902;52.154;5.430;2023-04-02T07:15:50;102227.63;;;3.61;85.55
70900;BME280;67902;52.154;5.430;2023-04-02T07:18:27;102232.13;;;3.60;84.94
70900;BME280;67902;52.154;5.430;2023-04-02T07:20:54;102237.03;;;3.65;85.06
70900;BME280;67902;52.154;5.430;2023-04-02T07:23:20;102243.50;;;3.62;85.31
70900;BME280;67902;52.154;5.430;2023-04-02T07:25:49;102248.38;;;3.59;85.31
70900;BME280;67902;52.154;5.430;2023-04-02T07:28:15;102260.09;;;3.58;85.70
70900;BME280;67902;52.154;5.430;2023-04-02T07:30:42;102255.22;;;3.53;84.47
70900;BME280;67902;52.154;5.430;2023-04-02T07:33:12;102261.06;;;3.48;84.52
70900;BME280;67902;52.154;5.430;2023-04-02T07:35:39;102265.94;;;3.53;85.01
70900;BME280;67902;52.154;5.430;2023-04-02T07:38:07;102278.50;;;3.61;85.61
70900;BME280;67902;52.154;5.430;2023-04-02T07:40:33;102283.38;;;3.65;84.87
70900;BME280;67902;52.154;5.430;2023-04-02T07:43:00;102283.88;;;3.61;84.62
70900;BME280;67902;52.154;5.430;2023-04-02T07:45:26;102288.78;;;3.73;84.86
70900;BME280;67902;52.154;5.430;2023-04-02T07:47:53;102282.56;;;3.73;84.20
70900;BME280;67902;52.154;5.430;2023-04-02T07:50:19;102291.59;;;3.80;84.27
70900;BME280;67902;52.154;5.430;2023-04-02T07:52:46;102291.09;;;3.76;84.51
70900;BME280;67902;52.154;5.430;2023-04-02T07:55:14;102288.41;;;3.76;83.90
70900;BME280;67902;52.154;5.430;2023-04-02T07:57:46;102290.59;;;3.73;85.70
70900;BME280;67902;52.154;5.430;2023-04-02T08:00:14;102290.91;;;3.62;84.68
70900;BME280;67902;52.154;5.430;2023-04-02T08:02:41;102300.78;;;3.61;85.05
70900;BME280;67902;52.154;5.430;2023-04-02T08:05:08;102304.31;;;3.70;85.11
70900;BME280;67902;52.154;5.430;2023-04-02T08:07:35;102307.34;;;3.75;85.32
70900;BME280;67902;52.154;5.430;2023-04-02T08:10:03;102317.41;;;3.81;84.81
70900;BME280;67902;52.154;5.430;2023-04-02T08:12:30;102318.41;;;3.80;84.92
70900;BME280;67902;52.154;5.430;2023-04-02T08:14:56;102321.41;;;3.85;83.80
70900;BME280;67902;52.154;5.430;2023-04-02T08:17:23;102328.81;;;3.91;84.09
70900;BME280;67902;52.154;5.430;2023-04-02T08:19:49;102328.66;;;3.84;83.45
70900;BME280;67902;52.154;5.430;2023-04-02T08:22:20;102334.81;;;3.85;82.48
70900;BME280;67902;52.154;5.430;2023-04-02T08:24:47;102337.50;;;3.85;83.18
70900;BME280;67902;52.154;5.430;2023-04-02T08:27:13;102343.38;;;3.96;82.26
70900;BME280;67902;52.154;5.430;2023-04-02T08:29:40;102344.91;;;3.99;82.39
70900;BME280;67902;52.154;5.430;2023-04-02T08:32:10;102351.63;;;4.03;82.12
70900;BME280;67902;52.154;5.430;2023-04-02T08:34:37;102361.00;;;4.07;82.54
70900;BME280;67902;52.154;5.430;2023-04-02T08:37:03;102368.06;;;4.24;81.96
70900;BME280;67902;52.154;5.430;2023-04-02T08:39:30;102371.78;;;4.39;80.92
70900;BME280;67902;52.154;5.430;2023-04-02T08:42:02;102383.03;;;4.43;80.68
70900;BME280;67902;52.154;5.430;2023-04-02T08:44:44;102376.31;;;4.39;81.54
70900;BME280;67902;52.154;5.430;2023-04-02T08:47:16;102380.34;;;4.51;82.13
70900;BME280;67902;52.154;5.430;2023-04-02T08:49:49;102391.75;;;4.61;81.08
70900;BME280;67902;52.154;5.430;2023-04-02T08:52:23;102390.09;;;4.60;80.71
70900;BME280;67902;52.154;5.430;2023-04-02T08:54:51;102397.09;;;4.61;80.30
70900;BME280;67902;52.154;5.430;2023-04-02T09:00:49;102406.84;;;4.54;80.80
70900;BME280;67902;52.154;5.430;2023-04-02T09:03:20;102419.41;;;4.53;81.06
70900;BME280;67902;52.154;5.430;2023-04-02T09:05:53;102426.13;;;4.65;81.27
70900;BME280;67902;52.154;5.430;2023-04-02T09:08:23;102427.13;;;4.73;79.67
70900;BME280;67902;52.154;5.430;2023-04-02T09:13:46;102431.19;;;4.77;80.28
70900;BME280;67902;52.154;5.430;2023-04-02T09:16:18;102432.50;;;4.81;79.34
70900;BME280;67902;52.154;5.430;2023-04-02T09:18:50;102438.53;;;4.75;78.50
70900;BME280;67902;52.154;5.430;2023-04-02T09:23:48;102440.22;;;5.00;78.63
70900;BME280;67902;52.154;5.430;2023-04-02T09:26:29;102442.41;;;5.04;78.15
70900;BME280;67902;52.154;5.430;2023-04-02T09:31:39;102452.00;;;6.25;76.71
70900;BME280;67902;52.154;5.430;2023-04-02T09:36:54;102460.09;;;9.04;68.29
70900;BME280;67902;52.154;5.430;2023-04-02T09:39:23;102470.00;;;9.74;65.99
70900;BME280;67902;52.154;5.430;2023-04-02T09:41:53;102461.97;;;10.21;64.37
70900;BME280;67902;52.154;5.430;2023-04-02T09:44:31;102468.56;;;10.73;60.28
70900;BME280;67902;52.154;5.430;2023-04-02T09:47:01;102453.22;;;11.19;61.65
70900;BME280;67902;52.154;5.430;2023-04-02T09:49:36;102465.28;;;11.43;59.44
70900;BME280;67902;52.154;5.430;2023-04-02T09:52:27;102459.41;;;11.92;57.96
70900;BME280;67902;52.154;5.430;2023-04-02T09:55:23;102460.69;;;11.76;56.72
70900;BME280;67902;52.154;5.430;2023-04-02T09:58:15;102462.38;;;11.05;56.74
70900;BME280;67902;52.154;5.430;2023-04-02T10:00:49;102463.63;;;11.09;57.79
70900;BME280;67902;52.154;5.430;2023-04-02T10:03:27;102472.81;;;11.41;56.72
70900;BME280;67902;52.154;5.430;2023-04-02T10:06:09;102470.75;;;11.36;58.09
70900;BME280;67902;52.154;5.430;2023-04-02T10:08:38;102474.88;;;11.58;55.22
70900;BME280;67902;52.154;5.430;2023-04-02T10:11:09;102481.38;;;11.25;57.01
70900;BME280;67902;52.154;5.430;2023-04-02T10:16:18;102484.22;;;12.02;57.56
70900;BME280;67902;52.154;5.430;2023-04-02T10:18:54;102490.31;;;12.48;57.71
70900;BME280;67902;52.154;5.430;2023-04-02T10:21:28;102488.19;;;12.57;53.28
70900;BME280;67902;52.154;5.430;2023-04-02T10:23:56;102493.44;;;13.21;54.75
70900;BME280;67902;52.154;5.430;2023-04-02T10:29:47;102493.16;;;12.98;53.20
70900;BME280;67902;52.154;5.430;2023-04-02T10:38:00;102502.88;;;12.80;52.28
70900;BME280;67902;52.154;5.430;2023-04-02T10:40:35;102498.88;;;12.90;51.22
70900;BME280;67902;52.154;5.430;2023-04-02T10:43:29;102502.50;;;12.77;51.74
70900;BME280;67902;52.154;5.430;2023-04-02T10:46:06;102498.16;;;13.07;53.39
70900;BME280;67902;52.154;5.430;2023-04-02T10:54:17;102502.84;;;12.94;50.84
70900;BME280;67902;52.154;5.430;2023-04-02T10:56:50;102507.06;;;13.21;49.86
70900;BME280;67902;52.154;5.430;2023-04-02T10:59:23;102500.84;;;13.63;51.40
70900;BME280;67902;52.154;5.430;2023-04-02T11:01:53;102520.91;;;13.44;51.72
70900;BME280;67902;52.154;5.430;2023-04-02T11:04:29;102514.75;;;13.55;50.93
70900;BME280;67902;52.154;5.430;2023-04-02T11:07:01;102519.09;;;13.56;49.41
70900;BME280;67902;52.154;5.430;2023-04-02T11:09:42;102525.50;;;13.68;52.38
70900;BME280;67902;52.154;5.430;2023-04-02T11:12:20;102534.31;;;13.88;52.05
70900;BME280;67902;52.154;5.430;2023-04-02T11:14:49;102534.69;;;14.35;51.10
70900;BME280;67902;52.154;5.430;2023-04-02T11:17:18;102526.13;;;14.49;51.31
70900;BME280;67902;52.154;5.430;2023-04-02T11:19:45;102528.00;;;14.97;48.18
70900;BME280;67902;52.154;5.430;2023-04-02T11:22:20;102537.06;;;15.09;46.76
70900;BME280;67902;52.154;5.430;2023-04-02T11:24:55;102534.28;;;14.97;45.64
70900;BME280;67902;52.154;5.430;2023-04-02T11:27:29;102529.38;;;14.88;47.46
70900;BME280;67902;52.154;5.430;2023-04-02T11:32:31;102541.63;;;15.27;45.65
70900;BME280;67902;52.154;5.430;2023-04-02T11:35:01;102549.34;;;15.30;45.68
70900;BME280;67902;52.154;5.430;2023-04-02T11:37:43;102550.47;;;15.10;42.62
70900;BME280;67902;52.154;5.430;2023-04-02T11:42:45;102553.13;;;15.29;45.50
70900;BME280;67902;52.154;5.430;2023-04-02T11:50:34;102562.13;;;15.18;46.80
70900;BME280;67902;52.154;5.430;2023-04-02T11:53:23;102557.66;;;15.35;47.80
70900;BME280;67902;52.154;5.430;2023-04-02T11:59:16;102570.94;;;15.84;48.83
70900;BME280;67902;52.154;5.430;2023-04-02T12:04:51;102566.16;;;16.61;46.40
70900;BME280;67902;52.154;5.430;2023-04-02T12:07:31;102567.22;;;16.37;44.32
70900;BME280;67902;52.154;5.430;2023-04-02T12:10:05;102576.75;;;16.34;44.99
70900;BME280;67902;52.154;5.430;2023-04-02T12:12:41;102576.97;;;16.96;43.92
70900;BME280;67902;52.154;5.430;2023-04-02T12:18:03;102579.47;;;16.57;44.81
70900;BME280;67902;52.154;5.430;2023-04-02T12:20:31;102583.97;;;16.75;43.01
70900;BME280;67902;52.154;5.430;2023-04-02T12:22:58;102582.31;;;16.62;44.57
70900;BME280;67902;52.154;5.430;2023-04-02T12:25:29;102586.94;;;16.62;45.23
70900;BME280;67902;52.154;5.430;2023-04-02T12:30:36;102599.28;;;16.76;44.87
70900;BME280;67902;52.154;5.430;2023-04-02T12:35:49;102598.50;;;17.04;39.97
70900;BME280;67902;52.154;5.430;2023-04-02T12:38:28;102587.50;;;17.32;42.65
70900;BME280;67902;52.154;5.430;2023-04-02T12:41:00;102592.59;;;17.85;40.13
70900;BME280;67902;52.154;5.430;2023-04-02T12:43:28;102598.28;;;18.00;38.13
70900;BME280;67902;52.154;5.430;2023-04-02T12:45:58;102593.66;;;17.67;38.83
70900;BME280;67902;52.154;5.430;2023-04-02T12:48:26;102589.31;;;17.26;40.00
70900;BME280;67902;52.154;5.430;2023-04-02T12:50:55;102604.19;;;17.02;41.03
70900;BME280;67902;52.154;5.430;2023-04-02T12:53:31;102605.47;;;17.11;40.38
70900;BME280;67902;52.154;5.430;2023-04-02T12:55:59;102611.13;;;17.50;38.68
70900;BME280;67902;52.154;5.430;2023-04-02T12:58:31;102601.41;;;17.42;41.51
70900;BME280;67902;52.154;5.430;2023-04-02T13:01:13;102610.56;;;17.19;40.69
70900;BME280;67902;52.154;5.430;2023-04-02T13:03:40;102606.84;;;17.54;39.01
70900;BME280;67902;52.154;5.430;2023-04-02T13:06:36;102600.66;;;17.47;40.21
70900;BME280;67902;52.154;5.430;2023-04-02T13:09:33;102608.50;;;17.55;38.93
70900;BME280;67902;52.154;5.430;2023-04-02T13:12:01;102607.09;;;17.69;38.44
70900;BME280;67902;52.154;5.430;2023-04-02T13:14:28;102606.88;;;17.87;37.99
70900;BME280;67902;52.154;5.430;2023-04-02T13:16:55;102618.28;;;18.50;37.53
70900;BME280;67902;52.154;5.430;2023-04-02T13:19:30;102618.53;;;18.32;35.80
70900;BME280;67902;52.154;5.430;2023-04-02T13:21:59;102621.41;;;18.04;37.04
70900;BME280;67902;52.154;5.430;2023-04-02T13:24:28;102613.25;;;18.09;36.29
70900;BME280;67902;52.154;5.430;2023-04-02T13:26:56;102617.63;;;18.27;36.38
70900;BME280;67902;52.154;5.430;2023-04-02T13:29:35;102613.44;;;18.41;37.27
70900;BME280;67902;52.154;5.430;2023-04-02T13:32:04;102617.06;;;17.91;37.21
70900;BME280;67902;52.154;5.430;2023-04-02T13:34:31;102617.94;;;18.30;36.47
70900;BME280;67902;52.154;5.430;2023-04-02T13:36:58;102617.13;;;18.90;35.20
70900;BME280;67902;52.154;5.430;2023-04-02T13:39:24;102625.94;;;18.48;34.80
70900;BME280;67902;52.154;5.430;2023-04-02T13:42:01;102625.53;;;18.23;34.96
70900;BME280;67902;52.154;5.430;2023-04-02T13:44:30;102619.50;;;18.81;38.00
70900;BME280;67902;52.154;5.430;2023-04-02T13:46:58;102616.38;;;19.70;35.35
70900;BME280;67902;52.154;5.430;2023-04-02T13:49:25;102623.78;;;20.01;34.15
70900;BME280;67902;52.154;5.430;2023-04-02T13:51:54;102624.66;;;19.75;31.94
70900;BME280;67902;52.154;5.430;2023-04-02T13:54:28;102615.38;;;19.81;34.86
70900;BME280;67902;52.154;5.430;2023-04-02T13:56:58;102626.41;;;20.22;34.07
70900;BME280;67902;52.154;5.430;2023-04-02T13:59:26;102624.38;;;21.02;31.68
70900;BME280;67902;52.154;5.430;2023-04-02T14:01:56;102630.47;;;21.09;29.42
70900;BME280;67902;52.154;5.430;2023-04-02T14:04:26;102626.81;;;20.93;33.23
70900;BME280;67902;52.154;5.430;2023-04-02T14:07:10;102637.00;;;20.93;32.15
70900;BME280;67902;52.154;5.430;2023-04-02T14:13:00;102627.66;;;21.04;31.16
70900;BME280;67902;52.154;5.430;2023-04-02T14:21:34;102641.94;;;21.93;29.23
70900;BME280;67902;52.154;5.430;2023-04-02T14:24:17;102646.25;;;22.54;29.49
70900;BME280;67902;52.154;5.430;2023-04-02T14:33:15;102653.97;;;21.36;32.17
70900;BME280;67902;52.154;5.430;2023-04-02T14:35:37;102652.09;;;21.62;32.83
70900;BME280;67902;52.154;5.430;2023-04-02T14:38:16;102652.38;;;22.36;28.47
70900;BME280;67902;52.154;5.430;2023-04-02T14:43:40;102654.19;;;22.91;28.22
70900;BME280;67902;52.154;5.430;2023-04-02T14:46:09;102658.66;;;22.77;27.74
70900;BME280;67902;52.154;5.430;2023-04-02T14:48:55;102663.16;;;22.18;27.59
70900;BME280;67902;52.154;5.430;2023-04-02T14:53:58;102672.53;;;22.37;29.53
70900;BME280;67902;52.154;5.430;2023-04-02T14:56:26;102673.34;;;22.37;29.86
70900;BME280;67902;52.154;5.430;2023-04-02T14:59:08;102668.09;;;22.51;28.11
70900;BME280;67902;52.154;5.430;2023-04-02T15:01:42;102666.13;;;22.72;27.10
70900;BME280;67902;52.154;5.430;2023-04-02T15:04:34;102668.91;;;22.62;28.58
70900;BME280;67902;52.154;5.430;2023-04-02T15:07:10;102665.19;;;22.96;26.36
70900;BME280;67902;52.154;5.430;2023-04-02T15:09:46;102667.72;;;23.52;26.22
70900;BME280;67902;52.154;5.430;2023-04-02T15:12:25;102675.53;;;22.61;27.23
70900;BME280;67902;52.154;5.430;2023-04-02T15:15:01;102669.72;;;22.57;26.67
70900;BME280;67902;52.154;5.430;2023-04-02T15:17:29;102676.34;;;22.71;26.30
70900;BME280;67902;52.154;5.430;2023-04-02T15:20:14;102684.69;;;22.16;25.94
70900;BME280;67902;52.154;5.430;2023-04-02T15:22:53;102681.13;;;21.95;27.78
70900;BME280;67902;52.154;5.430;2023-04-02T15:25:41;102682.44;;;22.58;28.05
70900;BME280;67902;52.154;5.430;2023-04-02T15:28:20;102682.13;;;22.85;26.61
70900;BME280;67902;52.154;5.430;2023-04-02T15:30:52;102681.53;;;22.98;27.09
70900;BME280;67902;52.154;5.430;2023-04-02T15:33:37;102686.31;;;22.72;27.15
70900;BME280;67902;52.154;5.430;2023-04-02T15:38:49;102687.16;;;22.32;26.76
70900;BME280;67902;52.154;5.430;2023-04-02T15:41:30;102683.59;;;22.22;26.90
70900;BME280;67902;52.154;5.430;2023-04-02T15:44:08;102687.94;;;21.67;26.73
70900;BME280;67902;52.154;5.430;2023-04-02T15:46:40;102690.69;;;21.62;28.23
70900;BME280;67902;52.154;5.430;2023-04-02T15:52:05;102696.59;;;21.09;27.99
70900;BME280;67902;52.154;5.430;2023-04-02T15:57:26;102693.09;;;20.76;28.83
70900;BME280;67902;52.154;5.430;2023-04-02T16:08:46;102696.06;;;19.21;31.72
70900;BME280;67902;52.154;5.430;2023-04-02T16:11:22;102701.72;;;18.93;33.79
70900;BME280;67902;52.154;5.430;2023-04-02T16:13:51;102705.41;;;18.60;33.03
70900;BME280;67902;52.154;5.430;2023-04-02T16:16:24;102715.34;;;17.15;35.32
70900;BME280;67902;52.154;5.430;2023-04-02T16:19:00;102723.50;;;15.69;39.06
70900;BME280;67902;52.154;5.430;2023-04-02T16:21:31;102723.97;;;15.00;41.37
70900;BME280;67902;52.154;5.430;2023-04-02T16:23:58;102725.41;;;14.84;42.97
70900;BME280;67902;52.154;5.430;2023-04-02T16:29:11;102722.97;;;16.32;37.21
70900;BME280;67902;52.154;5.430;2023-04-02T16:31:51;102728.91;;;16.98;37.59